sensor_id;sensor_type;location;lat;lon;timestamp;temperature;humidity
24224;DHT22;12359;49.716;9.212;2022-10-16T00:01:29;16.60;97.00
24224;DHT22;12359;49.716;9.212;2022-10-16T00:03:56;16.60;96.90
24224;DHT22;12359;49.716;9.212;2022-10-16T00:06:22;16.60;96.90
24224;DHT22;12359;49.716;9.212;2022-10-16T00:08:49;16.60;97.00
24224;DHT22;12359;49.716;9.212;2022-10-16T00:11:17;16.60;96.60
24224;DHT22;12359;49.716;9.212;2022-10-16T00:13:45;16.70;97.00
24224;DHT22;12359;49.716;9.212;2022-10-16T00:16:11;16.60;96.20
24224;DHT22;12359;49.716;9.212;2022-10-16T00:18:38;16.60;96.90
24224;DHT22;12359;49.716;9.212;2022-10-16T00:21:06;16.50;97.10
24224;DHT22;12359;49.716;9.212;2022-10-16T00:23:32;16.50;98.00
24224;DHT22;12359;49.716;9.212;2022-10-16T00:26:00;16.50;98.70
24224;DHT22;12359;49.716;9.212;2022-10-16T00:28:26;16.50;98.90
24224;DHT22;12359;49.716;9.212;2022-10-16T00:30:53;16.50;99.00
24224;DHT22;12359;49.716;9.212;2022-10-16T00:33:19;16.50;98.90
24224;DHT22;12359;49.716;9.212;2022-10-16T00:35:45;16.50;98.80
24224;DHT22;12359;49.716;9.212;2022-10-16T00:38:11;16.50;98.40
24224;DHT22;12359;49.716;9.212;2022-10-16T00:40:37;16.50;98.40
24224;DHT22;12359;49.716;9.212;2022-10-16T00:43:02;16.50;98.60
24224;DHT22;12359;49.716;9.212;2022-10-16T00:45:30;16.60;98.30
24224;DHT22;12359;49.716;9.212;2022-10-16T00:47:56;16.50;98.30
24224;DHT22;12359;49.716;9.212;2022-10-16T00:50:33;16.50;98.40
24224;DHT22;12359;49.716;9.212;2022-10-16T00:53:00;16.50;98.30
24224;DHT22;12359;49.716;9.212;2022-10-16T00:55:27;16.40;98.50
24224;DHT22;12359;49.716;9.212;2022-10-16T00:57:56;16.50;99.60
24224;DHT22;12359;49.716;9.212;2022-10-16T01:00:24;16.50;99.60
24224;DHT22;12359;49.716;9.212;2022-10-16T01:02:59;16.50;99.40
24224;DHT22;12359;49.716;9.212;2022-10-16T01:05:47;16.50;99.70
24224;DHT22;12359;49.716;9.212;2022-10-16T01:08:29;16.50;99.90
24224;DHT22;12359;49.716;9.212;2022-10-16T01:11:06;16.40;99.90
24224;DHT22;12359;49.716;9.212;2022-10-16T01:13:42;16.50;99.90
24224;DHT22;12359;49.716;9.212;2022-10-16T01:16:16;16.50;99.90
24224;DHT22;12359;49.716;9.212;2022-10-16T01:21:28;16.50;99.90
24224;DHT22;12359;49.716;9.212;2022-10-16T01:27:10;16.50;99.30
24224;DHT22;12359;49.716;9.212;2022-10-16T01:33:00;16.60;99.30
24224;DHT22;12359;49.716;9.212;2022-10-16T01:35:45;16.60;99.10
24224;DHT22;12359;49.716;9.212;2022-10-16T01:38:38;16.60;98.80
24224;DHT22;12359;49.716;9.212;2022-10-16T01:41:15;16.60;98.60
24224;DHT22;12359;49.716;9.212;2022-10-16T01:43:50;16.60;98.70
24224;DHT22;12359;49.716;9.212;2022-10-16T01:46:20;16.60;98.70
24224;DHT22;12359;49.716;9.212;2022-10-16T01:48:48;16.60;98.70
24224;DHT22;12359;49.716;9.212;2022-10-16T01:51:15;16.60;98.50
24224;DHT22;12359;49.716;9.212;2022-10-16T01:53:46;16.60;98.20
24224;DHT22;12359;49.716;9.212;2022-10-16T01:56:13;16.60;98.30
24224;DHT22;12359;49.716;9.212;2022-10-16T01:58:47;16.60;98.30
24224;DHT22;12359;49.716;9.212;2022-10-16T02:01:16;16.60;97.90
24224;DHT22;12359;49.716;9.212;2022-10-16T02:03:43;16.60;98.00
24224;DHT22;12359;49.716;9.212;2022-10-16T02:06:10;16.60;97.90
24224;DHT22;12359;49.716;9.212;2022-10-16T02:08:36;16.60;97.80
24224;DHT22;12359;49.716;9.212;2022-10-16T02:11:02;16.60;97.70
24224;DHT22;12359;49.716;9.212;2022-10-16T02:13:36;16.60;98.00
24224;DHT22;12359;49.716;9.212;2022-10-16T02:16:03;16.60;98.20
24224;DHT22;12359;49.716;9.212;2022-10-16T02:18:31;16.60;98.00
24224;DHT22;12359;49.716;9.212;2022-10-16T02:26:15;16.60;98.10
24224;DHT22;12359;49.716;9.212;2022-10-16T02:28:48;16.60;98.00
24224;DHT22;12359;49.716;9.212;2022-10-16T02:31:23;16.70;97.90
24224;DHT22;12359;49.716;9.212;2022-10-16T02:33:53;16.60;97.30
24224;DHT22;12359;49.716;9.212;2022-10-16T02:36:20;16.60;97.50
24224;DHT22;12359;49.716;9.212;2022-10-16T02:38:47;16.60;97.50
24224;DHT22;12359;49.716;9.212;2022-10-16T02:41:14;16.60;97.60
24224;DHT22;12359;49.716;9.212;2022-10-16T02:43:39;16.60;97.80
24224;DHT22;12359;49.716;9.212;2022-10-16T02:46:05;16.60;97.70
24224;DHT22;12359;49.716;9.212;2022-10-16T02:48:31;16.50;97.40
24224;DHT22;12359;49.716;9.212;2022-10-16T02:50:57;16.50;97.10
24224;DHT22;12359;49.716;9.212;2022-10-16T02:53:22;16.50;97.30
24224;DHT22;12359;49.716;9.212;2022-10-16T02:55:48;16.50;97.80
24224;DHT22;12359;49.716;9.212;2022-10-16T02:58:14;16.50;97.90
24224;DHT22;12359;49.716;9.212;2022-10-16T03:00:39;16.50;97.90
24224;DHT22;12359;49.716;9.212;2022-10-16T03:03:05;16.40;97.70
24224;DHT22;12359;49.716;9.212;2022-10-16T03:05:31;16.40;97.60
24224;DHT22;12359;49.716;9.212;2022-10-16T03:07:57;16.40;97.40
24224;DHT22;12359;49.716;9.212;2022-10-16T03:10:25;16.40;97.50
24224;DHT22;12359;49.716;9.212;2022-10-16T03:12:51;16.40;97.50
24224;DHT22;12359;49.716;9.212;2022-10-16T03:15:16;16.40;97.30
24224;DHT22;12359;49.716;9.212;2022-10-16T03:17:42;16.40;97.40
24224;DHT22;12359;49.716;9.212;2022-10-16T03:20:08;16.30;97.30
24224;DHT22;12359;49.716;9.212;2022-10-16T03:22:34;16.30;97.20
24224;DHT22;12359;49.716;9.212;2022-10-16T03:25:00;16.30;97.50
24224;DHT22;12359;49.716;9.212;2022-10-16T03:27:26;16.30;97.60
24224;DHT22;12359;49.716;9.212;2022-10-16T03:29:51;16.20;96.80
24224;DHT22;12359;49.716;9.212;2022-10-16T03:32:17;16.20;97.40
24224;DHT22;12359;49.716;9.212;2022-10-16T03:34:43;16.20;97.10
24224;DHT22;12359;49.716;9.212;2022-10-16T03:37:09;16.20;97.40
24224;DHT22;12359;49.716;9.212;2022-10-16T03:39:35;16.20;97.10
24224;DHT22;12359;49.716;9.212;2022-10-16T03:42:00;16.20;96.90
24224;DHT22;12359;49.716;9.212;2022-10-16T03:44:26;16.20;97.10
24224;DHT22;12359;49.716;9.212;2022-10-16T03:46:52;16.20;97.20
24224;DHT22;12359;49.716;9.212;2022-10-16T03:49:17;16.20;97.10
24224;DHT22;12359;49.716;9.212;2022-10-16T03:51:43;16.20;97.00
24224;DHT22;12359;49.716;9.212;2022-10-16T03:54:10;16.10;96.70
24224;DHT22;12359;49.716;9.212;2022-10-16T03:56:35;16.10;97.10
24224;DHT22;12359;49.716;9.212;2022-10-16T03:59:01;16.20;97.40
24224;DHT22;12359;49.716;9.212;2022-10-16T04:01:27;16.20;97.60
24224;DHT22;12359;49.716;9.212;2022-10-16T04:03:52;16.20;97.10
24224;DHT22;12359;49.716;9.212;2022-10-16T04:06:18;16.20;97.20
24224;DHT22;12359;49.716;9.212;2022-10-16T04:08:44;16.20;97.20
24224;DHT22;12359;49.716;9.212;2022-10-16T04:11:10;16.20;96.70
24224;DHT22;12359;49.716;9.212;2022-10-16T04:13:36;16.10;96.70
24224;DHT22;12359;49.716;9.212;2022-10-16T04:16:01;16.10;96.60
24224;DHT22;12359;49.716;9.212;2022-10-16T04:18:27;16.10;96.60
24224;DHT22;12359;49.716;9.212;2022-10-16T04:20:53;16.10;96.70
24224;DHT22;12359;49.716;9.212;2022-10-16T04:23:19;16.00;96.40
24224;DHT22;12359;49.716;9.212;2022-10-16T04:25:45;16.00;96.60
24224;DHT22;12359;49.716;9.212;2022-10-16T04:28:11;16.00;96.70
24224;DHT22;12359;49.716;9.212;2022-10-16T04:30:38;16.00;96.70
24224;DHT22;12359;49.716;9.212;2022-10-16T04:33:04;16.00;96.50
24224;DHT22;12359;49.716;9.212;2022-10-16T04:35:30;16.00;96.40
24224;DHT22;12359;49.716;9.212;2022-10-16T04:37:57;15.90;96.60
24224;DHT22;12359;49.716;9.212;2022-10-16T04:40:23;15.90;96.70
24224;DHT22;12359;49.716;9.212;2022-10-16T04:42:49;15.90;96.80
24224;DHT22;12359;49.716;9.212;2022-10-16T04:45:15;15.90;97.20
24224;DHT22;12359;49.716;9.212;2022-10-16T04:47:41;15.90;96.90
24224;DHT22;12359;49.716;9.212;2022-10-16T04:50:07;15.90;96.60
24224;DHT22;12359;49.716;9.212;2022-10-16T04:52:33;15.90;96.80
24224;DHT22;12359;49.716;9.212;2022-10-16T04:54:59;15.90;97.00
24224;DHT22;12359;49.716;9.212;2022-10-16T04:57:28;15.90;96.60
24224;DHT22;12359;49.716;9.212;2022-10-16T04:59:54;15.90;96.90
24224;DHT22;12359;49.716;9.212;2022-10-16T05:02:19;15.90;97.20
24224;DHT22;12359;49.716;9.212;2022-10-16T05:04:45;15.90;97.20
24224;DHT22;12359;49.716;9.212;2022-10-16T05:07:11;15.90;97.00
24224;DHT22;12359;49.716;9.212;2022-10-16T05:09:37;15.90;97.60
24224;DHT22;12359;49.716;9.212;2022-10-16T05:12:02;15.90;97.50
24224;DHT22;12359;49.716;9.212;2022-10-16T05:14:29;15.90;97.60
24224;DHT22;12359;49.716;9.212;2022-10-16T05:16:54;15.80;97.80
24224;DHT22;12359;49.716;9.212;2022-10-16T05:19:20;15.90;98.10
24224;DHT22;12359;49.716;9.212;2022-10-16T05:21:46;15.90;98.00
24224;DHT22;12359;49.716;9.212;2022-10-16T05:24:11;15.90;98.10
24224;DHT22;12359;49.716;9.212;2022-10-16T05:26:37;15.90;97.90
24224;DHT22;12359;49.716;9.212;2022-10-16T05:29:03;15.80;97.30
24224;DHT22;12359;49.716;9.212;2022-10-16T05:31:29;15.80;97.40
24224;DHT22;12359;49.716;9.212;2022-10-16T05:33:59;15.80;97.60
24224;DHT22;12359;49.716;9.212;2022-10-16T05:36:25;15.80;98.30
24224;DHT22;12359;49.716;9.212;2022-10-16T05:38:51;15.80;98.20
24224;DHT22;12359;49.716;9.212;2022-10-16T05:41:17;15.80;98.00
24224;DHT22;12359;49.716;9.212;2022-10-16T05:43:47;15.80;97.90
24224;DHT22;12359;49.716;9.212;2022-10-16T05:46:14;15.80;98.00
24224;DHT22;12359;49.716;9.212;2022-10-16T05:48:39;15.80;97.80
24224;DHT22;12359;49.716;9.212;2022-10-16T05:51:07;15.80;97.80
24224;DHT22;12359;49.716;9.212;2022-10-16T05:53:36;15.80;97.90
24224;DHT22;12359;49.716;9.212;2022-10-16T05:56:02;15.80;97.90
24224;DHT22;12359;49.716;9.212;2022-10-16T05:58:34;15.80;97.60
24224;DHT22;12359;49.716;9.212;2022-10-16T06:01:06;15.80;97.60
24224;DHT22;12359;49.716;9.212;2022-10-16T06:03:33;15.80;97.80
24224;DHT22;12359;49.716;9.212;2022-10-16T06:05:59;15.80;97.40
24224;DHT22;12359;49.716;9.212;2022-10-16T06:08:25;15.80;97.60
24224;DHT22;12359;49.716;9.212;2022-10-16T06:11:12;15.80;97.80
24224;DHT22;12359;49.716;9.212;2022-10-16T06:13:38;15.80;97.60
24224;DHT22;12359;49.716;9.212;2022-10-16T06:16:06;15.80;97.50
24224;DHT22;12359;49.716;9.212;2022-10-16T06:18:32;15.80;96.90
24224;DHT22;12359;49.716;9.212;2022-10-16T06:20:58;15.80;97.60
24224;DHT22;12359;49.716;9.212;2022-10-16T06:23:25;15.80;97.30
24224;DHT22;12359;49.716;9.212;2022-10-16T06:25:51;15.80;97.70
24224;DHT22;12359;49.716;9.212;2022-10-16T06:28:17;15.80;98.60
24224;DHT22;12359;49.716;9.212;2022-10-16T06:30:42;15.80;98.80
24224;DHT22;12359;49.716;9.212;2022-10-16T06:33:11;15.90;99.10
24224;DHT22;12359;49.716;9.212;2022-10-16T06:35:37;15.90;99.00
24224;DHT22;12359;49.716;9.212;2022-10-16T06:38:03;15.90;99.10
24224;DHT22;12359;49.716;9.212;2022-10-16T06:40:28;16.00;99.00
24224;DHT22;12359;49.716;9.212;2022-10-16T06:42:57;16.00;99.00
24224;DHT22;12359;49.716;9.212;2022-10-16T06:45:23;16.00;98.50
24224;DHT22;12359;49.716;9.212;2022-10-16T06:47:48;16.10;98.70
24224;DHT22;12359;49.716;9.212;2022-10-16T06:50:14;16.10;98.60
24224;DHT22;12359;49.716;9.212;2022-10-16T06:52:40;16.20;98.30
24224;DHT22;12359;49.716;9.212;2022-10-16T06:55:06;16.20;98.00
24224;DHT22;12359;49.716;9.212;2022-10-16T06:57:32;16.20;97.60
24224;DHT22;12359;49.716;9.212;2022-10-16T06:59:57;16.30;98.40
24224;DHT22;12359;49.716;9.212;2022-10-16T07:02:23;16.40;97.90
24224;DHT22;12359;49.716;9.212;2022-10-16T07:04:49;16.40;97.70
24224;DHT22;12359;49.716;9.212;2022-10-16T07:07:14;16.50;97.60
24224;DHT22;12359;49.716;9.212;2022-10-16T07:09:40;16.50;96.30
24224;DHT22;12359;49.716;9.212;2022-10-16T07:12:06;16.50;97.10
24224;DHT22;12359;49.716;9.212;2022-10-16T07:14:31;16.60;97.00
24224;DHT22;12359;49.716;9.212;2022-10-16T07:16:57;16.60;95.10
24224;DHT22;12359;49.716;9.212;2022-10-16T07:19:23;16.50;95.50
24224;DHT22;12359;49.716;9.212;2022-10-16T07:21:49;16.50;94.70
24224;DHT22;12359;49.716;9.212;2022-10-16T07:24:16;16.50;94.50
24224;DHT22;12359;49.716;9.212;2022-10-16T07:26:43;16.50;96.00
24224;DHT22;12359;49.716;9.212;2022-10-16T07:29:20;16.60;96.30
24224;DHT22;12359;49.716;9.212;2022-10-16T07:31:47;16.70;96.80
24224;DHT22;12359;49.716;9.212;2022-10-16T07:34:14;16.80;96.40
24224;DHT22;12359;49.716;9.212;2022-10-16T07:36:40;16.90;95.90
24224;DHT22;12359;49.716;9.212;2022-10-16T07:39:06;16.90;94.00
24224;DHT22;12359;49.716;9.212;2022-10-16T07:41:32;17.00;94.60
24224;DHT22;12359;49.716;9.212;2022-10-16T07:44:02;17.10;93.30
24224;DHT22;12359;49.716;9.212;2022-10-16T07:46:28;17.20;91.30
24224;DHT22;12359;49.716;9.212;2022-10-16T07:48:54;17.20;91.70
24224;DHT22;12359;49.716;9.212;2022-10-16T07:51:22;17.30;91.90
24224;DHT22;12359;49.716;9.212;2022-10-16T07:53:48;17.30;90.60
24224;DHT22;12359;49.716;9.212;2022-10-16T07:56:15;17.30;88.60
24224;DHT22;12359;49.716;9.212;2022-10-16T07:58:41;17.30;88.30
24224;DHT22;12359;49.716;9.212;2022-10-16T08:01:14;17.30;85.40
24224;DHT22;12359;49.716;9.212;2022-10-16T08:03:50;17.50;89.70
24224;DHT22;12359;49.716;9.212;2022-10-16T08:06:17;17.60;81.40
24224;DHT22;12359;49.716;9.212;2022-10-16T08:08:42;17.60;77.00
24224;DHT22;12359;49.716;9.212;2022-10-16T08:11:09;17.70;83.40
24224;DHT22;12359;49.716;9.212;2022-10-16T08:13:35;18.00;78.80
24224;DHT22;12359;49.716;9.212;2022-10-16T08:16:01;17.90;58.80
24224;DHT22;12359;49.716;9.212;2022-10-16T08:18:27;18.00;69.10
24224;DHT22;12359;49.716;9.212;2022-10-16T08:20:56;18.00;70.60
24224;DHT22;12359;49.716;9.212;2022-10-16T08:23:23;18.10;71.20
24224;DHT22;12359;49.716;9.212;2022-10-16T08:25:51;18.10;66.20
24224;DHT22;12359;49.716;9.212;2022-10-16T08:28:19;18.30;73.50
24224;DHT22;12359;49.716;9.212;2022-10-16T08:30:44;18.70;64.80
24224;DHT22;12359;49.716;9.212;2022-10-16T08:33:10;18.80;50.30
24224;DHT22;12359;49.716;9.212;2022-10-16T08:35:36;18.80;41.30
24224;DHT22;12359;49.716;9.212;2022-10-16T08:38:06;18.60;34.30
24224;DHT22;12359;49.716;9.212;2022-10-16T08:40:33;18.60;41.70
24224;DHT22;12359;49.716;9.212;2022-10-16T08:48:51;18.10;56.30
24224;DHT22;12359;49.716;9.212;2022-10-16T08:51:29;18.00;63.50
24224;DHT22;12359;49.716;9.212;2022-10-16T08:53:58;17.90;71.00
24224;DHT22;12359;49.716;9.212;2022-10-16T08:56:25;17.90;74.30
24224;DHT22;12359;49.716;9.212;2022-10-16T08:58:52;17.90;76.50
24224;DHT22;12359;49.716;9.212;2022-10-16T09:01:21;17.90;75.90
24224;DHT22;12359;49.716;9.212;2022-10-16T09:12:18;17.80;85.70
24224;DHT22;12359;49.716;9.212;2022-10-16T09:17:45;17.90;89.60
24224;DHT22;12359;49.716;9.212;2022-10-16T09:22:45;18.00;89.10
24224;DHT22;12359;49.716;9.212;2022-10-16T09:25:17;18.00;89.00
24224;DHT22;12359;49.716;9.212;2022-10-16T09:27:48;17.90;90.80
24224;DHT22;12359;49.716;9.212;2022-10-16T09:30:19;18.00;91.20
24224;DHT22;12359;49.716;9.212;2022-10-16T09:32:48;17.90;91.80
24224;DHT22;12359;49.716;9.212;2022-10-16T09:35:21;17.90;91.80
24224;DHT22;12359;49.716;9.212;2022-10-16T09:37:52;17.80;92.70
24224;DHT22;12359;49.716;9.212;2022-10-16T09:46:02;17.60;94.40
24224;DHT22;12359;49.716;9.212;2022-10-16T09:48:39;17.60;95.40
24224;DHT22;12359;49.716;9.212;2022-10-16T09:51:28;17.60;95.70
24224;DHT22;12359;49.716;9.212;2022-10-16T09:56:31;17.60;96.30
24224;DHT22;12359;49.716;9.212;2022-10-16T09:59:13;17.60;96.60
24224;DHT22;12359;49.716;9.212;2022-10-16T10:01:51;17.60;96.50
24224;DHT22;12359;49.716;9.212;2022-10-16T10:04:21;17.70;97.20
24224;DHT22;12359;49.716;9.212;2022-10-16T10:06:55;17.80;97.10
24224;DHT22;12359;49.716;9.212;2022-10-16T10:09:25;17.80;97.20
24224;DHT22;12359;49.716;9.212;2022-10-16T10:11:55;17.80;96.40
24224;DHT22;12359;49.716;9.212;2022-10-16T10:47:07;23.20;99.90
24224;DHT22;12359;49.716;9.212;2022-10-16T10:52:41;23.40;99.90
24224;DHT22;12359;49.716;9.212;2022-10-16T11:00:48;23.00;99.90
24224;DHT22;12359;49.716;9.212;2022-10-16T11:05:59;22.90;99.90
24224;DHT22;12359;49.716;9.212;2022-10-16T11:11:02;23.20;99.90
24224;DHT22;12359;49.716;9.212;2022-10-16T11:13:47;23.60;8.40
24224;DHT22;12359;49.716;9.212;2022-10-16T11:16:39;23.80;1.00
24224;DHT22;12359;49.716;9.212;2022-10-16T11:25:16;24.40;1.00
24224;DHT22;12359;49.716;9.212;2022-10-16T11:30:27;24.30;99.90
24224;DHT22;12359;49.716;9.212;2022-10-16T11:44:09;25.10;1.00
24224;DHT22;12359;49.716;9.212;2022-10-16T11:46:40;25.50;1.00
24224;DHT22;12359;49.716;9.212;2022-10-16T11:49:13;25.80;99.90
24224;DHT22;12359;49.716;9.212;2022-10-16T11:51:47;25.90;1.00
24224;DHT22;12359;49.716;9.212;2022-10-16T11:54:28;26.00;99.90
24224;DHT22;12359;49.716;9.212;2022-10-16T11:57:01;25.60;72.70
24224;DHT22;12359;49.716;9.212;2022-10-16T11:59:30;26.00;91.70
24224;DHT22;12359;49.716;9.212;2022-10-16T12:04:49;26.00;1.00
24224;DHT22;12359;49.716;9.212;2022-10-16T12:07:23;26.00;1.00
24224;DHT22;12359;49.716;9.212;2022-10-16T12:09:51;26.00;32.60
24224;DHT22;12359;49.716;9.212;2022-10-16T12:15:17;25.50;99.90
24224;DHT22;12359;49.716;9.212;2022-10-16T12:17:43;24.90;99.90
24224;DHT22;12359;49.716;9.212;2022-10-16T12:22:51;24.20;39.20
24224;DHT22;12359;49.716;9.212;2022-10-16T12:28:36;24.00;1.00
24224;DHT22;12359;49.716;9.212;2022-10-16T12:30:51;23.80;99.90
24224;DHT22;12359;49.716;9.212;2022-10-16T12:35:52;23.40;99.90
24224;DHT22;12359;49.716;9.212;2022-10-16T12:38:27;23.30;1.00
24224;DHT22;12359;49.716;9.212;2022-10-16T12:41:00;23.40;99.90
24224;DHT22;12359;49.716;9.212;2022-10-16T12:43:36;23.50;3.50
24224;DHT22;12359;49.716;9.212;2022-10-16T12:48:33;23.30;99.90
24224;DHT22;12359;49.716;9.212;2022-10-16T12:51:19;23.40;93.40
24224;DHT22;12359;49.716;9.212;2022-10-16T12:54:01;23.40;99.90
24224;DHT22;12359;49.716;9.212;2022-10-16T12:59:09;23.70;99.90
24224;DHT22;12359;49.716;9.212;2022-10-16T13:12:52;23.30;1.00
24224;DHT22;12359;49.716;9.212;2022-10-16T13:15:26;23.20;99.90
24224;DHT22;12359;49.716;9.212;2022-10-16T13:18:14;23.10;99.90
24224;DHT22;12359;49.716;9.212;2022-10-16T13:20:53;23.00;99.90
24224;DHT22;12359;49.716;9.212;2022-10-16T13:23:30;23.00;99.90
24224;DHT22;12359;49.716;9.212;2022-10-16T13:28:31;22.80;1.00
24224;DHT22;12359;49.716;9.212;2022-10-16T13:30:59;22.80;99.90
24224;DHT22;12359;49.716;9.212;2022-10-16T13:33:35;22.80;99.90
24224;DHT22;12359;49.716;9.212;2022-10-16T13:36:02;22.80;99.90
24224;DHT22;12359;49.716;9.212;2022-10-16T13:38:31;22.80;99.90
24224;DHT22;12359;49.716;9.212;2022-10-16T13:43:41;22.80;99.90
24224;DHT22;12359;49.716;9.212;2022-10-16T13:46:16;22.80;99.90
24224;DHT22;12359;49.716;9.212;2022-10-16T13:48:42;22.80;99.90
24224;DHT22;12359;49.716;9.212;2022-10-16T13:51:18;22.80;99.90
24224;DHT22;12359;49.716;9.212;2022-10-16T13:53:45;22.80;99.90
24224;DHT22;12359;49.716;9.212;2022-10-16T13:56:13;22.70;99.90
24224;DHT22;12359;49.716;9.212;2022-10-16T13:58:39;22.60;99.90
24224;DHT22;12359;49.716;9.212;2022-10-16T14:01:23;22.60;99.90
24224;DHT22;12359;49.716;9.212;2022-10-16T14:03:50;22.50;99.90
24224;DHT22;12359;49.716;9.212;2022-10-16T14:06:19;22.40;1.00
24224;DHT22;12359;49.716;9.212;2022-10-16T14:09:20;22.20;1.00
24224;DHT22;12359;49.716;9.212;2022-10-16T14:11:51;22.10;1.00
24224;DHT22;12359;49.716;9.212;2022-10-16T14:14:21;21.80;1.00
24224;DHT22;12359;49.716;9.212;2022-10-16T14:16:54;21.70;1.00
24224;DHT22;12359;49.716;9.212;2022-10-16T14:19:26;21.50;1.00
24224;DHT22;12359;49.716;9.212;2022-10-16T14:21:53;21.50;1.00
24224;DHT22;12359;49.716;9.212;2022-10-16T14:24:32;21.40;1.00
24224;DHT22;12359;49.716;9.212;2022-10-16T14:26:59;21.40;1.00
24224;DHT22;12359;49.716;9.212;2022-10-16T14:29:27;21.30;1.60
24224;DHT22;12359;49.716;9.212;2022-10-16T14:31:58;21.20;2.70
24224;DHT22;12359;49.716;9.212;2022-10-16T14:34:36;21.10;1.00
24224;DHT22;12359;49.716;9.212;2022-10-16T14:37:26;21.10;1.00
24224;DHT22;12359;49.716;9.212;2022-10-16T14:39:54;21.20;1.00
24224;DHT22;12359;49.716;9.212;2022-10-16T14:42:21;21.20;1.00
24224;DHT22;12359;49.716;9.212;2022-10-16T14:44:50;21.20;1.00
24224;DHT22;12359;49.716;9.212;2022-10-16T14:47:22;21.30;1.00
24224;DHT22;12359;49.716;9.212;2022-10-16T14:49:51;21.30;1.00
24224;DHT22;12359;49.716;9.212;2022-10-16T14:52:18;21.40;1.00
24224;DHT22;12359;49.716;9.212;2022-10-16T14:54:48;21.50;1.00
24224;DHT22;12359;49.716;9.212;2022-10-16T14:57:19;21.40;1.00
24224;DHT22;12359;49.716;9.212;2022-10-16T14:59:46;21.40;1.00
24224;DHT22;12359;49.716;9.212;2022-10-16T15:02:33;21.40;1.00
24224;DHT22;12359;49.716;9.212;2022-10-16T15:05:15;21.30;1.00
24224;DHT22;12359;49.716;9.212;2022-10-16T15:07:41;21.10;1.00
24224;DHT22;12359;49.716;9.212;2022-10-16T15:10:07;21.00;1.00
24224;DHT22;12359;49.716;9.212;2022-10-16T15:12:33;20.80;1.00
24224;DHT22;12359;49.716;9.212;2022-10-16T15:15:00;20.80;1.00
24224;DHT22;12359;49.716;9.212;2022-10-16T15:17:25;20.70;1.00
24224;DHT22;12359;49.716;9.212;2022-10-16T15:19:51;20.70;8.80
24224;DHT22;12359;49.716;9.212;2022-10-16T15:22:17;20.60;19.20
24224;DHT22;12359;49.716;9.212;2022-10-16T15:24:43;20.50;18.90
24224;DHT22;12359;49.716;9.212;2022-10-16T15:27:09;20.50;21.00
24224;DHT22;12359;49.716;9.212;2022-10-16T15:29:35;20.40;26.80
24224;DHT22;12359;49.716;9.212;2022-10-16T15:32:00;20.40;28.10
24224;DHT22;12359;49.716;9.212;2022-10-16T15:34:26;20.40;28.90
24224;DHT22;12359;49.716;9.212;2022-10-16T15:36:51;20.30;27.80
24224;DHT22;12359;49.716;9.212;2022-10-16T15:39:19;20.30;27.50
24224;DHT22;12359;49.716;9.212;2022-10-16T15:41:46;20.20;30.00
24224;DHT22;12359;49.716;9.212;2022-10-16T15:44:20;20.20;37.10
24224;DHT22;12359;49.716;9.212;2022-10-16T15:46:46;20.20;39.90
24224;DHT22;12359;49.716;9.212;2022-10-16T15:49:12;20.10;32.70
24224;DHT22;12359;49.716;9.212;2022-10-16T15:51:40;20.00;32.40
24224;DHT22;12359;49.716;9.212;2022-10-16T15:54:06;20.00;36.70
24224;DHT22;12359;49.716;9.212;2022-10-16T15:56:32;19.90;26.60
24224;DHT22;12359;49.716;9.212;2022-10-16T15:58:59;19.80;30.00
24224;DHT22;12359;49.716;9.212;2022-10-16T16:01:26;19.70;37.00
24224;DHT22;12359;49.716;9.212;2022-10-16T16:03:55;19.70;41.50
24224;DHT22;12359;49.716;9.212;2022-10-16T16:06:21;19.70;45.00
24224;DHT22;12359;49.716;9.212;2022-10-16T16:08:49;19.60;46.30
24224;DHT22;12359;49.716;9.212;2022-10-16T16:11:16;19.60;46.40
24224;DHT22;12359;49.716;9.212;2022-10-16T16:13:42;19.40;47.40
24224;DHT22;12359;49.716;9.212;2022-10-16T16:16:13;19.40;54.00
24224;DHT22;12359;49.716;9.212;2022-10-16T16:18:39;19.30;56.80
24224;DHT22;12359;49.716;9.212;2022-10-16T16:21:06;19.20;57.60
24224;DHT22;12359;49.716;9.212;2022-10-16T16:23:32;19.20;58.00
24224;DHT22;12359;49.716;9.212;2022-10-16T16:26:12;19.10;59.00
24224;DHT22;12359;49.716;9.212;2022-10-16T16:28:39;19.00;61.40
24224;DHT22;12359;49.716;9.212;2022-10-16T16:31:08;18.90;62.40
24224;DHT22;12359;49.716;9.212;2022-10-16T16:33:34;18.90;65.70
24224;DHT22;12359;49.716;9.212;2022-10-16T16:36:02;18.80;67.30
24224;DHT22;12359;49.716;9.212;2022-10-16T16:38:29;18.80;69.80
24224;DHT22;12359;49.716;9.212;2022-10-16T16:40:55;18.70;71.10
24224;DHT22;12359;49.716;9.212;2022-10-16T16:43:29;18.70;73.70
24224;DHT22;12359;49.716;9.212;2022-10-16T16:45:55;18.60;73.80
24224;DHT22;12359;49.716;9.212;2022-10-16T16:48:21;18.60;73.60
24224;DHT22;12359;49.716;9.212;2022-10-16T16:50:47;18.60;74.70
24224;DHT22;12359;49.716;9.212;2022-10-16T16:53:13;18.50;71.80
24224;DHT22;12359;49.716;9.212;2022-10-16T16:55:38;18.40;74.20
24224;DHT22;12359;49.716;9.212;2022-10-16T16:58:04;18.30;75.20
24224;DHT22;12359;49.716;9.212;2022-10-16T17:00:30;18.30;76.60
24224;DHT22;12359;49.716;9.212;2022-10-16T17:02:56;18.20;78.30
24224;DHT22;12359;49.716;9.212;2022-10-16T17:05:22;18.20;82.00
24224;DHT22;12359;49.716;9.212;2022-10-16T17:07:48;18.20;81.40
24224;DHT22;12359;49.716;9.212;2022-10-16T17:10:14;18.10;81.70
24224;DHT22;12359;49.716;9.212;2022-10-16T17:12:40;18.20;83.20
24224;DHT22;12359;49.716;9.212;2022-10-16T17:15:06;18.10;82.20
24224;DHT22;12359;49.716;9.212;2022-10-16T17:17:32;18.10;84.10
24224;DHT22;12359;49.716;9.212;2022-10-16T17:19:58;18.00;85.30
24224;DHT22;12359;49.716;9.212;2022-10-16T17:22:23;17.90;88.30
24224;DHT22;12359;49.716;9.212;2022-10-16T17:24:49;17.80;89.60
24224;DHT22;12359;49.716;9.212;2022-10-16T17:27:19;17.70;89.70
24224;DHT22;12359;49.716;9.212;2022-10-16T17:29:49;17.60;91.60
24224;DHT22;12359;49.716;9.212;2022-10-16T17:32:14;17.60;93.20
24224;DHT22;12359;49.716;9.212;2022-10-16T17:34:40;17.60;95.20
24224;DHT22;12359;49.716;9.212;2022-10-16T17:37:06;17.60;95.10
24224;DHT22;12359;49.716;9.212;2022-10-16T17:39:32;17.50;94.70
24224;DHT22;12359;49.716;9.212;2022-10-16T17:41:57;17.40;95.60
24224;DHT22;12359;49.716;9.212;2022-10-16T17:44:23;17.40;95.40
24224;DHT22;12359;49.716;9.212;2022-10-16T17:46:51;17.30;95.10
24224;DHT22;12359;49.716;9.212;2022-10-16T17:49:17;17.20;96.10
24224;DHT22;12359;49.716;9.212;2022-10-16T17:51:43;17.10;96.10
24224;DHT22;12359;49.716;9.212;2022-10-16T17:54:09;17.10;95.20
24224;DHT22;12359;49.716;9.212;2022-10-16T17:56:36;17.00;93.10
24224;DHT22;12359;49.716;9.212;2022-10-16T17:59:03;16.90;94.80
24224;DHT22;12359;49.716;9.212;2022-10-16T18:01:32;16.80;95.60
24224;DHT22;12359;49.716;9.212;2022-10-16T18:04:04;16.80;97.00
24224;DHT22;12359;49.716;9.212;2022-10-16T18:06:32;16.80;97.50